IST,Max TemperatureF,Mean TemperatureF,Min TemperatureF,Max Dew PointF,MeanDew PointF,Min DewpointF,Max Humidity, Mean Humidity, Min Humidity, Max Sea Level PressureIn, Mean Sea Level PressureIn, Min Sea Level PressureIn, Max VisibilityMiles, Mean VisibilityMiles, Min VisibilityMiles, Max Wind SpeedMPH, Mean Wind SpeedMPH, Max Gust SpeedMPH,PrecipitationIn, CloudCover, Events, WindDirDegrees
2012-9-1,66,60,55,61,57,54,100,88,61,30.37,30.23,30.12,19,6,2,26,12,,0.03,6,Rain,210
2012-9-2,63,60,57,61,56,52,100,88,69,30.36,30.26,30.15,6,6,3,12,8,,0.00,6,Rain,270
2012-9-3,70,60,49,64,57,50,100,89,60,30.36,30.27,30.21,16,6,2,16,5,,0.04,4,,179
2012-9-4,64,57,50,63,54,48,100,83,60,30.42,30.32,30.21,16,6,2,15,9,,0.00,5,Rain,298
2012-9-5,65,54,43,54,49,43,100,82,52,30.49,30.45,30.42,12,6,2,8,4,,0.00,3,Fog,358
2012-9-6,66,58,49,55,52,48,100,85,59,30.42,30.33,30.27,19,7,6,16,7,,0.00,2,,211
2012-9-7,66,61,56,61,58,55,100,91,78,30.29,30.25,30.21,19,7,4,12,7,,0.00,6,,245
2012-9-8,65,60,55,59,55,50,100,82,59,30.22,30.04,29.83,19,7,6,14,6,,0.00,6,,172
2012-9-9,67,61,55,61,57,52,100,88,73,29.83,29.64,29.56,16,6,2,18,12,,0.04,6,Rain,186
2012-9-10,56,53,50,58,53,48,100,92,74,29.80,29.68,29.62,12,6,2,14,10,,0.28,6,Rain,275
2012-9-11,57,52,48,50,46,43,94,80,57,30.06,29.97,29.80,16,7,6,20,12,30,0.02,5,Rain,268
2012-9-12,65,58,50,59,53,46,100,87,64,30.18,30.01,29.92,12,6,2,21,11,,0.01,5,Rain,264
2012-9-13,63,55,47,57,54,46,100,88,73,30.20,30.08,29.92,19,6,2,29,12,36,0.04,6,Rain,241
2012-9-14,63,59,55,59,53,50,100,84,66,30.10,30.01,29.92,19,6,2,24,18,38,0.01,5,Rain,273
2012-9-15,60,57,54,57,53,52,100,88,72,30.12,30.02,29.92,19,7,5,18,10,,0.00,6,Rain,242
2012-9-16,61,57,51,61,53,48,100,85,67,29.92,29.83,29.77,16,6,1,21,12,,0.20,6,Rain,237
2012-9-17,58,54,50,54,50,46,94,86,72,29.88,29.83,29.80,16,6,3,25,13,,0.28,4,Rain,239
2012-9-18,58,52,47,48,45,43,94,78,59,30.24,30.06,29.86,19,7,6,20,11,,0.04,2,Rain,290
2012-9-19,58,52,45,52,48,43,100,85,64,30.25,30.21,30.12,19,7,6,16,7,,0.02,5,Rain,232
2012-9-20,59,56,52,55,52,52,100,88,76,30.12,30.04,30.01,16,6,2,15,9,,0.02,6,Rain,214
2012-9-21,58,50,42,52,46,39,100,81,51,30.12,30.06,30.01,16,6,2,15,7,,0.08,4,Rain,38
2012-9-22,59,50,40,48,44,39,100,81,55,30.15,30.08,29.98,16,7,6,14,5,,0.00,3,,115
2012-9-23,59,52,46,52,48,45,93,84,71,29.98,29.74,29.53,16,7,6,14,9,,0.02,5,Rain,114
2012-9-24,52,50,48,50,48,46,100,94,83,29.53,29.38,29.27,12,6,5,11,5,,0.12,7,Rain,337
2012-9-25,54,50,47,50,48,46,100,91,77,29.30,29.24,29.18,12,6,2,20,12,29,0.08,6,Rain,331
2012-9-26,61,56,50,50,48,43,88,78,63,29.80,29.51,29.30,19,7,6,23,17,36,0.00,5,Rain,340
2012-9-27,58,52,47,54,48,45,100,85,68,29.87,29.84,29.80,16,6,2,17,9,,0.00,6,Rain,262
2012-9-28,59,54,48,52,49,45,94,87,72,30.01,29.88,29.80,12,6,4,21,12,28,0.08,5,Rain,264
2012-9-29,60,54,48,52,49,45,94,83,67,30.16,30.08,29.98,19,7,5,20,9,,0.00,5,Rain,238
2012-9-30,61,57,53,59,54,50,100,87,68,29.96,29.84,29.80,16,6,2,24,17,,0.16,6,Rain,227